createdAt,value
2022-12-09T00:04:43.741Z,100602.81
2022-12-09T00:09:45.516Z,100597.34
2022-12-09T00:14:47.227Z,100599.56
2022-12-09T00:19:48.946Z,100592.78
2022-12-09T00:24:50.936Z,100591.84
2022-12-09T00:29:52.777Z,100598.41
2022-12-09T00:34:54.499Z,100602.56
2022-12-09T00:39:56.345Z,100595.53
2022-12-09T00:44:58.427Z,100596.34
2022-12-09T00:50:00.396Z,100600.59
2022-12-09T00:55:02.810Z,100600.75
2022-12-09T01:00:54.820Z,100598.84
2022-12-09T01:05:56.654Z,100597.75
2022-12-09T01:10:58.411Z,100596.59
2022-12-09T01:16:00.191Z,100596.53
2022-12-09T01:21:02.548Z,100600.09
2022-12-09T01:26:05.602Z,100601.84
2022-12-09T01:31:18.214Z,100606.56
2022-12-09T01:36:23.342Z,100613.63
2022-12-09T01:41:25.641Z,100612.78
2022-12-09T01:46:27.517Z,100612.66
2022-12-09T01:51:30.568Z,100612.84
2022-12-09T01:56:35.956Z,100611.34
2022-12-09T02:01:39.672Z,100609.34
2022-12-09T02:06:41.520Z,100612.34
2022-12-09T02:12:04.662Z,100608.63
2022-12-09T02:17:26.346Z,100600.22
2022-12-09T02:22:35.327Z,100595.66
2022-12-09T02:28:12.967Z,100593.81
2022-12-09T02:33:34.242Z,100596.25
2022-12-09T02:38:41.126Z,100578.78
2022-12-09T02:43:50.299Z,100585.91
2022-12-09T02:48:59.413Z,100584.88
2022-12-09T02:54:11.391Z,100584.28
2022-12-09T02:59:14.161Z,100585.56
2022-12-09T03:04:22.689Z,100595.09
2022-12-09T03:09:32.976Z,100583.34
2022-12-09T03:14:45.946Z,100576.69
2022-12-09T03:19:59.065Z,100567.97
2022-12-09T03:25:06.985Z,100569.00
2022-12-09T03:30:11.271Z,100567.34
2022-12-09T03:35:22.597Z,100562.50
2022-12-09T03:40:28.423Z,100562.81
2022-12-09T03:45:32.460Z,100559.97
2022-12-09T03:50:49.574Z,100555.38
2022-12-09T03:56:00.604Z,100555.13
2022-12-09T04:01:03.036Z,100556.97
2022-12-09T04:06:04.856Z,100550.50
2022-12-09T04:11:06.874Z,100555.97
2022-12-09T04:16:10.061Z,100552.16
2022-12-09T04:21:13.238Z,100559.06
2022-12-09T04:26:19.856Z,100553.34
2022-12-09T04:31:22.082Z,100552.25
2022-12-09T04:36:23.855Z,100552.53
2022-12-09T04:41:25.856Z,100556.69
2022-12-09T04:46:27.699Z,100553.22
2022-12-09T04:51:34.264Z,100548.53
2022-12-09T04:56:41.760Z,100550.53
2022-12-09T05:01:43.673Z,100562.59
2022-12-09T05:06:45.580Z,100555.13
2022-12-09T05:11:48.046Z,100549.81
2022-12-09T05:16:50.186Z,100548.22
2022-12-09T05:21:51.975Z,100546.81
2022-12-09T05:26:53.737Z,100545.34
2022-12-09T05:31:55.356Z,100543.22
2022-12-09T05:36:57.285Z,100538.69
2022-12-09T05:41:59.376Z,100537.16
2022-12-09T05:47:01.524Z,100543.94
2022-12-09T05:52:03.847Z,100551.25
2022-12-09T05:57:05.893Z,100537.69
2022-12-09T06:02:10.282Z,100546.03
2022-12-09T06:07:12.502Z,100535.41
2022-12-09T06:12:15.344Z,100532.38
2022-12-09T06:17:17.928Z,100539.66
2022-12-09T06:22:19.740Z,100536.31
2022-12-09T06:27:21.776Z,100534.81
2022-12-09T06:32:23.789Z,100523.59
2022-12-09T06:37:25.739Z,100536.56
2022-12-09T06:42:27.755Z,100524.47
2022-12-09T06:47:29.770Z,100527.47
2022-12-09T06:52:31.686Z,100518.59
2022-12-09T06:57:33.459Z,100527.84
2022-12-09T07:02:36.742Z,100517.88
2022-12-09T07:07:39.590Z,100516.13
2022-12-09T07:12:41.816Z,100520.72
2022-12-09T07:17:43.977Z,100528.22
2022-12-09T07:22:46.013Z,100526.59
2022-12-09T07:27:47.836Z,100537.31
2022-12-09T07:32:50.111Z,100541.78
2022-12-09T07:37:52.260Z,100532.06
2022-12-09T07:42:59.075Z,100531.91
2022-12-09T07:48:01.701Z,100539.06
2022-12-09T07:53:03.947Z,100545.34
2022-12-09T07:58:05.887Z,100553.34
2022-12-09T08:03:08.052Z,100554.44
2022-12-09T08:08:10.105Z,100552.41
2022-12-09T08:13:12.963Z,100556.69
2022-12-09T08:18:14.959Z,100555.97
2022-12-09T08:23:16.749Z,100562.06
2022-12-09T08:28:18.704Z,100567.59
2022-12-09T08:33:20.739Z,100564.16
2022-12-09T08:38:22.801Z,100563.69
2022-12-09T08:43:24.593Z,100562.91
2022-12-09T08:48:26.500Z,100557.88
2022-12-09T08:53:28.351Z,100560.44
2022-12-09T08:58:31.416Z,100558.22
2022-12-09T09:03:33.360Z,100564.53
2022-12-09T09:08:36.173Z,100563.34
2022-12-09T09:13:42.924Z,100553.69
2022-12-09T09:18:45.555Z,100555.41
2022-12-09T09:23:48.218Z,100551.00
2022-12-09T09:28:50.974Z,100570.19
2022-12-09T09:33:53.418Z,100573.00
2022-12-09T09:38:57.405Z,100578.66
2022-12-09T09:43:59.949Z,100572.09
2022-12-09T09:49:03.980Z,100582.72
2022-12-09T09:54:08.909Z,100577.09
2022-12-09T09:59:21.293Z,100586.00
2022-12-09T10:04:36.946Z,100590.38
2022-12-09T10:09:48.967Z,100589.13
2022-12-09T10:14:56.247Z,100585.19
2022-12-09T10:20:28.666Z,100590.38
2022-12-09T10:25:35.812Z,100587.75
2022-12-09T10:30:44.206Z,100579.53
2022-12-09T10:35:47.695Z,100569.16
2022-12-09T10:41:39.592Z,100578.16
2022-12-09T10:46:41.840Z,100581.28
2022-12-09T10:51:49.540Z,100583.06
2022-12-09T10:57:03.604Z,100563.97
2022-12-09T11:02:08.949Z,100578.88
2022-12-09T11:07:22.933Z,100562.34
2022-12-09T11:12:30.907Z,100571.69
2022-12-09T11:17:36.848Z,100567.84
2022-12-09T11:22:41.191Z,100581.41
2022-12-09T11:27:48.913Z,100580.25
2022-12-09T11:33:07.886Z,100575.16
2022-12-09T11:38:36.364Z,100568.56
2022-12-09T11:43:37.965Z,100565.13
2022-12-09T11:49:01.340Z,100563.53
2022-12-09T11:54:13.323Z,100558.44
2022-12-09T11:59:24.124Z,100552.91
2022-12-09T12:05:15.713Z,100548.19
2022-12-09T12:10:34.942Z,100537.63
2022-12-09T12:16:07.163Z,100543.03
2022-12-09T12:21:26.548Z,100544.16
2022-12-09T12:26:52.348Z,100523.16
2022-12-09T12:32:02.543Z,100518.53
2022-12-09T12:37:16.524Z,100520.75
2022-12-09T12:43:07.225Z,100517.00
2022-12-09T12:48:33.114Z,100516.06
2022-12-09T12:53:34.805Z,100522.13
2022-12-09T12:58:42.499Z,100513.91
2022-12-09T13:03:46.936Z,100520.00
2022-12-09T13:09:01.428Z,100509.28
2022-12-09T13:14:16.120Z,100500.72
2022-12-09T13:19:28.414Z,100504.16
2022-12-09T13:25:00.293Z,100495.41
2022-12-09T13:30:09.956Z,100496.25
2022-12-09T13:35:35.947Z,100491.69
2022-12-09T13:40:39.132Z,100501.16
2022-12-09T13:45:44.194Z,100487.84
2022-12-09T13:50:49.394Z,100492.25
2022-12-09T13:56:01.601Z,100483.38
2022-12-09T14:01:12.374Z,100487.84
2022-12-09T14:06:28.088Z,100486.84
2022-12-09T14:11:49.821Z,100489.00
2022-12-09T14:16:53.568Z,100486.13
2022-12-09T14:22:21.053Z,100488.56
2022-12-09T14:27:31.759Z,100490.72
2022-12-09T14:32:52.407Z,100493.13
2022-12-09T14:38:04.184Z,100489.69
2022-12-09T14:43:28.842Z,100493.72
2022-12-09T14:48:39.138Z,100499.75
2022-12-09T14:53:40.827Z,100487.84
2022-12-09T14:58:48.209Z,100491.44
2022-12-09T15:04:02.647Z,100484.72
2022-12-09T15:09:04.388Z,100492.00
2022-12-09T15:14:27.680Z,100499.88
2022-12-09T15:19:59.265Z,100500.56
2022-12-09T15:24:54.448Z,100506.28
2022-12-09T15:29:56.478Z,100501.81
2022-12-09T15:35:21.042Z,100507.09
2022-12-09T15:40:29.055Z,100520.56
2022-12-09T15:45:38.147Z,100518.69
2022-12-09T15:50:50.935Z,100521.59
2022-12-09T15:56:07.965Z,100527.56
2022-12-09T16:01:09.963Z,100520.03
2022-12-09T16:06:11.999Z,100520.97
2022-12-09T16:11:33.982Z,100526.69
2022-12-09T16:16:44.308Z,100525.16
2022-12-09T16:21:46.083Z,100527.78
2022-12-09T16:26:51.486Z,100521.47
2022-12-09T16:32:18.947Z,100530.66
2022-12-09T16:37:35.705Z,100530.59
2022-12-09T16:42:41.015Z,100527.78
2022-12-09T16:47:44.982Z,100524.22
2022-12-09T16:52:46.837Z,100524.34
2022-12-09T16:57:51.575Z,100532.63
2022-12-09T17:03:03.511Z,100527.50
2022-12-09T17:08:05.370Z,100536.84
2022-12-09T17:13:07.253Z,100541.91
2022-12-09T17:18:10.218Z,100553.75
2022-12-09T17:23:12.268Z,100548.88
2022-12-09T17:28:14.186Z,100547.13
2022-12-09T17:33:16.718Z,100545.84
2022-12-09T17:38:18.995Z,100551.06
2022-12-09T17:43:20.823Z,100549.28
2022-12-09T17:48:22.612Z,100559.75
2022-12-09T17:53:25.018Z,100554.69
2022-12-09T17:58:26.762Z,100546.16
2022-12-09T18:03:54.258Z,100563.97
2022-12-09T18:08:51.412Z,100555.75
2022-12-09T18:13:54.121Z,100563.34
2022-12-09T18:18:56.241Z,100558.03
2022-12-09T18:23:58.074Z,100552.69
2022-12-09T18:29:00.270Z,100558.16
2022-12-09T18:34:02.141Z,100562.44
2022-12-09T18:39:05.202Z,100573.91
2022-12-09T18:44:08.768Z,100572.22
2022-12-09T18:49:13.711Z,100583.19
2022-12-09T18:54:22.850Z,100590.22
2022-12-09T18:59:26.393Z,100582.94
2022-12-09T19:04:29.798Z,100581.69
2022-12-09T19:09:34.798Z,100587.22
2022-12-09T19:14:42.194Z,100585.75
2022-12-09T19:19:46.481Z,100579.50
2022-12-09T19:24:48.279Z,100585.50
2022-12-09T19:29:51.057Z,100585.47
2022-12-09T19:34:53.065Z,100594.47
2022-12-09T19:39:57.090Z,100610.31
2022-12-09T19:45:01.980Z,100601.28
2022-12-09T19:50:05.535Z,100597.06
2022-12-09T19:55:08.481Z,100602.69
2022-12-09T20:00:11.414Z,100610.88
2022-12-09T20:05:13.211Z,100604.34
2022-12-09T20:10:15.090Z,100596.19
2022-12-09T20:15:17.156Z,100612.41
2022-12-09T20:20:18.853Z,100594.28
2022-12-09T20:25:20.688Z,100601.81
2022-12-09T20:30:22.361Z,100609.41
2022-12-09T20:35:26.396Z,100611.50
2022-12-09T20:40:28.263Z,100614.38
2022-12-09T20:45:30.096Z,100614.63
2022-12-09T20:50:38.220Z,100624.16
2022-12-09T20:55:40.595Z,100620.00
2022-12-09T21:00:42.463Z,100627.53
2022-12-09T21:05:44.265Z,100628.63
2022-12-09T21:10:46.137Z,100636.03
2022-12-09T21:15:47.992Z,100641.78
2022-12-09T21:20:49.797Z,100633.94
2022-12-09T21:25:51.828Z,100634.59
2022-12-09T21:30:53.763Z,100635.13
2022-12-09T21:35:55.551Z,100634.84
2022-12-09T21:41:01.985Z,100638.69
2022-12-09T21:46:07.350Z,100635.63
2022-12-09T21:51:11.260Z,100631.44
2022-12-09T21:56:16.453Z,100636.47
2022-12-09T22:01:20.957Z,100644.66
2022-12-09T22:06:23.472Z,100639.06
2022-12-09T22:11:27.906Z,100640.19
2022-12-09T22:16:39.040Z,100653.47
2022-12-09T22:21:41.032Z,100649.31
2022-12-09T22:26:46.107Z,100657.72
2022-12-09T22:31:47.909Z,100657.94
2022-12-09T22:36:50.104Z,100657.47
2022-12-09T22:41:51.767Z,100668.56
2022-12-09T22:46:53.921Z,100671.50
2022-12-09T22:52:00.402Z,100667.44
2022-12-09T22:57:02.493Z,100673.19
2022-12-09T23:02:04.317Z,100672.47
2022-12-09T23:07:06.100Z,100668.50
2022-12-09T23:12:08.073Z,100668.50
2022-12-09T23:17:09.726Z,100674.66
2022-12-09T23:22:11.370Z,100668.22
2022-12-09T23:27:13.047Z,100668.66
2022-12-09T23:32:14.717Z,100669.28
2022-12-09T23:37:16.452Z,100674.94
2022-12-09T23:42:19.653Z,100674.69
2022-12-09T23:47:21.372Z,100672.22
2022-12-09T23:52:22.972Z,100660.16
2022-12-09T23:57:24.574Z,100668.91
